Terminal Aerodrome Forecast
Issued by NWS

Home | Current Version | Previous Version | Text Only | Print | Product List | Glossary On
Versions: 1 2 3 4 5 6 7 8 9 10 11 12 13 14 15 16 17 18 19 20 21
000
FTUS44 KLUB 072340
TAFCDS
TAF
KCDS 072340Z 0800/0824 02010KT 4SM BR OVC010
      TEMPO 0810/0813 1SM BR OVC008
     FM081500 19010KT P6SM BKN010 BKN100
     FM081800 VRB03KT P6SM OVC025
     FM082100 14008KT P6SM SCT025 BKN050=

USA.gov is the U.S. government's official web portal to all federal, state and local government web resources and services.